CheckWX is a tool to help pilots better visualize weather data.  It is not intended as a substitute for an official pre-flight weather briefing.

06:55:49 UTC

KORL METAR
Orlando Executive Airport
Orlando, Florida, USA
Current

1 hour ago

KORL 210553Z AUTO 19004KT 10SM CLR 24/21 A2998 RMK AO2 SLP153 T02440211 10278 20239 58007
Observed
May-21 @ 05:53 UTC
Wind
  • 190° at 4 KTS
Visibility
10 SM
Flight Rules
VFR
Cloud Levels
  • Clear skies
Temperature
24°C / 75°F
Dewpoint
21°C / 70°F
Humidity
83%
Altimeter
29.98" Hg
Pressure
1015.22 hPa
Previous

2 hours ago

KORL 210453Z AUTO 15004KT 10SM CLR 24/21 A2999 RMK AO2 SLP157 T02390211 403280222
Observed
May-21 @ 04:53 UTC
Wind
  • 150° at 4 KTS
Visibility
10 SM
Flight Rules
VFR
Cloud Levels
  • Clear skies
Temperature
24°C / 75°F
Dewpoint
21°C / 70°F
Humidity
83%
Altimeter
29.99" Hg
Pressure
1015.62 hPa
Previous

3 hours ago

KORL 210353Z AUTO 14007KT 10SM CLR 24/21 A3000 RMK AO2 SLP160 T02440211
Observed
May-21 @ 03:53 UTC
Wind
  • 140° at 7 KTS
Visibility
10 SM
Flight Rules
VFR
Cloud Levels
  • Clear skies
Temperature
24°C / 75°F
Dewpoint
21°C / 70°F
Humidity
83%
Altimeter
30" Hg
Pressure
1015.92 hPa